Time;durP1;ratioP1;P1;durP2;ratioP2;P2;SDS_P1;SDS_P2;PMS_P1;PMS_P2;Temp;Humidity;BMP_temperature;BMP_pressure;BME280_temperature;BME280_humidity;BME280_pressure;Samples;Min_cycle;Max_cycle;Signal;HPM_P1;HPM_P2
2023/09/23 00:00:51;;;;;;;765.38;704.17;;;;;;;;;;5065845;28;20453;-72
2023/09/23 00:03:24;;;;;;;769.63;706.90;;;;;;;;;;5077111;28;20438;-71
2023/09/23 00:05:52;;;;;;;777.20;713.17;;;;;;;;;;5067988;28;20435;-71
2023/09/23 00:08:20;;;;;;;782.58;716.60;;;;;;;;;;5075767;28;20440;-72
2023/09/23 00:10:50;;;;;;;784.67;717.65;;;;;;;;;;5082768;28;20754;-72
2023/09/23 00:13:23;;;;;;;799.67;730.47;;;;;;;;;;5085559;28;20421;-72
2023/09/23 00:15:51;;;;;;;801.20;730.80;;;;;;;;;;5079879;28;20424;-72
2023/09/23 00:18:18;;;;;;;804.33;733.75;;;;;;;;;;5085326;28;20414;-72
2023/09/23 00:20:46;;;;;;;814.83;748.35;;;;;;;;;;5069635;28;20421;-72
2023/09/23 00:23:14;;;;;;;816.40;749.35;;;;;;;;;;5063850;28;20469;-73
2023/09/23 00:25:41;;;;;;;818.45;747.63;;;;;;;;;;5071630;28;20434;-72
2023/09/23 00:28:11;;;;;;;816.20;743.10;;;;;;;;;;5086454;28;20430;-71
2023/09/23 00:30:41;;;;;;;819.53;744.85;;;;;;;;;;5077440;28;21047;-71
2023/09/23 00:33:10;;;;;;;825.17;749.13;;;;;;;;;;5085658;28;20457;-71
2023/09/23 00:35:40;;;;;;;831.92;755.33;;;;;;;;;;5081729;28;20498;-71
2023/09/23 00:38:08;;;;;;;822.55;751.25;;;;;;;;;;5082986;28;20566;-71
2023/09/23 00:40:38;;;;;;;826.50;758.33;;;;;;;;;;5079189;28;20432;-71
2023/09/23 00:43:06;;;;;;;819.47;753.33;;;;;;;;;;5080710;28;20479;-73
2023/09/23 00:45:38;;;;;;;823.78;757.10;;;;;;;;;;5081218;28;21703;-73
2023/09/23 00:48:08;;;;;;;829.92;761.90;;;;;;;;;;5078775;28;20437;-70
2023/09/23 00:50:35;;;;;;;832.78;764.17;;;;;;;;;;5078848;28;20699;-72
2023/09/23 00:53:06;;;;;;;830.75;762.50;;;;;;;;;;5078115;28;20503;-72
2023/09/23 00:55:40;;;;;;;834.17;765.97;;;;;;;;;;5075457;28;20444;-72
2023/09/23 00:58:08;;;;;;;824.75;759.90;;;;;;;;;;5078340;28;20444;-73
2023/09/23 01:00:36;;;;;;;822.05;757.58;;;;;;;;;;5078262;28;20487;-70
2023/09/23 01:03:03;;;;;;;828.70;762.47;;;;;;;;;;5074418;28;20431;-71
2023/09/23 01:05:34;;;;;;;834.00;767.05;;;;;;;;;;5065439;28;20422;-71
2023/09/23 01:08:18;;;;;;;840.63;772.55;;;;;;;;;;5084889;28;20426;-73
2023/09/23 01:10:49;;;;;;;841.97;773.00;;;;;;;;;;5082546;28;20504;-72
2023/09/23 01:13:20;;;;;;;0.30;0.30;;;;;;;;;;5079740;28;20513;-72
2023/09/23 01:15:51;;;;;;;1.30;0.30;;;;;;;;;;5083423;28;20522;-73
2023/09/23 01:18:18;;;;;;;0.20;0.20;;;;;;;;;;5079143;28;20757;-73
2023/09/23 01:20:49;;;;;;;0.20;0.20;;;;;;;;;;5082243;28;20426;-73
2023/09/23 01:23:20;;;;;;;0.40;0.40;;;;;;;;;;5075732;28;20435;-72
2023/09/23 01:25:50;;;;;;;0.95;0.43;;;;;;;;;;5080354;28;20422;-73
2023/09/23 01:28:18;;;;;;;0.40;0.30;;;;;;;;;;5075725;28;20431;-72
2023/09/23 01:30:45;;;;;;;0.20;0.20;;;;;;;;;;5075562;28;20885;-72
2023/09/23 01:33:16;;;;;;;0.80;0.30;;;;;;;;;;5089129;28;21151;-72
2023/09/23 01:35:45;;;;;;;0.70;0.30;;;;;;;;;;5073057;28;20790;-70
2023/09/23 01:38:15;;;;;;;0.38;0.38;;;;;;;;;;5079838;28;20437;-72
2023/09/23 01:40:43;;;;;;;1.08;0.38;;;;;;;;;;5077764;28;20439;-72
2023/09/23 01:43:11;;;;;;;0.30;0.30;;;;;;;;;;5081005;28;20449;-71
2023/09/23 01:45:39;;;;;;;0.75;0.20;;;;;;;;;;5082304;28;20518;-72
2023/09/23 01:48:07;;;;;;;1.90;0.40;;;;;;;;;;5080494;28;20422;-72
2023/09/23 01:50:34;;;;;;;2.08;0.28;;;;;;;;;;5078155;28;20481;-72
2023/09/23 01:53:02;;;;;;;0.30;0.30;;;;;;;;;;5083125;28;20430;-70
2023/09/23 01:55:29;;;;;;;1.00;0.40;;;;;;;;;;5056385;28;20548;-71
2023/09/23 01:57:56;;;;;;;1.70;0.50;;;;;;;;;;5071751;28;21112;-70
2023/09/23 02:00:28;;;;;;;0.30;0.30;;;;;;;;;;5090564;28;20434;-70
2023/09/23 02:02:57;;;;;;;1.10;0.32;;;;;;;;;;5069916;28;20452;-71
2023/09/23 02:05:28;;;;;;;2.00;0.28;;;;;;;;;;5085674;28;20436;-70
2023/09/23 02:08:01;;;;;;;0.30;0.30;;;;;;;;;;5082927;28;20427;-70
2023/09/23 02:10:28;;;;;;;0.70;0.20;;;;;;;;;;5080061;28;20515;-70
2023/09/23 02:12:57;;;;;;;0.40;0.40;;;;;;;;;;5082792;28;20429;-74
2023/09/23 02:15:30;;;;;;;1.00;0.30;;;;;;;;;;5074351;28;20493;-73
2023/09/23 02:18:06;;;;;;;0.30;0.30;;;;;;;;;;5084762;28;20579;-74
2023/09/23 02:20:34;;;;;;;0.30;0.30;;;;;;;;;;5080220;28;20518;-71
2023/09/23 02:23:01;;;;;;;1.70;0.70;;;;;;;;;;5082883;28;20429;-73
2023/09/23 02:25:29;;;;;;;0.73;0.30;;;;;;;;;;5068407;28;20437;-70
2023/09/23 02:27:57;;;;;;;0.70;0.70;;;;;;;;;;5084488;28;20487;-72
2023/09/23 02:30:25;;;;;;;1.00;0.30;;;;;;;;;;5083469;28;20418;-72
2023/09/23 02:32:52;;;;;;;0.40;0.30;;;;;;;;;;5081921;28;20439;-71
2023/09/23 02:35:20;;;;;;;1.25;0.40;;;;;;;;;;5066776;28;20437;-71
2023/09/23 02:37:48;;;;;;;1.90;0.50;;;;;;;;;;5082000;28;20504;-71
2023/09/23 02:40:17;;;;;;;0.60;0.40;;;;;;;;;;5082681;28;20429;-71
2023/09/23 02:42:51;;;;;;;0.95;0.60;;;;;;;;;;5091096;28;20929;-72
2023/09/23 02:45:20;;;;;;;1.33;0.43;;;;;;;;;;5082421;28;20787;-71
2023/09/23 02:47:47;;;;;;;0.43;0.43;;;;;;;;;;5077207;28;20424;-71
2023/09/23 02:50:17;;;;;;;1.85;0.75;;;;;;;;;;5079281;28;20434;-73
2023/09/23 02:52:48;;;;;;;1.98;0.63;;;;;;;;;;5077670;28;20507;-72
2023/09/23 02:55:18;;;;;;;1.70;0.43;;;;;;;;;;5075560;28;20487;-70
2023/09/23 02:57:48;;;;;;;0.50;0.50;;;;;;;;;;5073226;28;20580;-70
2023/09/23 03:00:24;;;;;;;0.57;0.57;;;;;;;;;;5088725;28;20757;-70
2023/09/23 03:02:55;;;;;;;1.60;0.60;;;;;;;;;;5073234;28;20530;-70
2023/09/23 03:05:28;;;;;;;1.20;0.60;;;;;;;;;;5083039;28;20425;-70
2023/09/23 03:07:58;;;;;;;3.13;0.75;;;;;;;;;;5096117;28;20532;-70
2023/09/23 03:10:34;;;;;;;0.60;0.60;;;;;;;;;;5081861;28;20429;-70
2023/09/23 03:13:07;;;;;;;1.40;0.60;;;;;;;;;;5080161;28;20436;-70
2023/09/23 03:15:52;;;;;;;0.60;0.60;;;;;;;;;;5084074;28;20431;-70
2023/09/23 03:18:33;;;;;;;1.20;0.70;;;;;;;;;;5074428;28;20483;-70
2023/09/23 03:21:11;;;;;;;0.70;0.70;;;;;;;;;;5082305;28;20425;-71
2023/09/23 03:23:39;;;;;;;0.90;0.90;;;;;;;;;;5079787;28;20429;-71
2023/09/23 03:26:20;;;;;;;0.77;0.77;;;;;;;;;;5074276;28;20430;-70
2023/09/23 03:28:49;;;;;;;0.65;0.65;;;;;;;;;;5092824;28;20427;-71
2023/09/23 03:31:16;;;;;;;0.70;0.70;;;;;;;;;;5068550;28;20851;-71
2023/09/23 03:33:44;;;;;;;2.35;0.80;;;;;;;;;;5076834;28;20425;-71
2023/09/23 03:36:15;;;;;;;1.05;0.77;;;;;;;;;;5087016;28;20433;-71
2023/09/23 03:38:43;;;;;;;0.90;0.90;;;;;;;;;;5078486;28;20522;-71
2023/09/23 03:41:11;;;;;;;1.10;1.00;;;;;;;;;;5075852;28;21245;-71
2023/09/23 03:43:41;;;;;;;0.88;0.85;;;;;;;;;;5074252;28;20870;-71
2023/09/23 03:46:15;;;;;;;1.50;0.98;;;;;;;;;;5083994;28;20907;-70
2023/09/23 03:48:43;;;;;;;2.28;1.20;;;;;;;;;;5078956;28;20467;-71
2023/09/23 03:51:11;;;;;;;1.25;1.10;;;;;;;;;;5080874;28;20926;-71
2023/09/23 03:53:38;;;;;;;2.78;1.25;;;;;;;;;;5078392;28;20518;-71
2023/09/23 03:56:08;;;;;;;2.58;1.50;;;;;;;;;;5078560;28;20425;-71
2023/09/23 03:58:38;;;;;;;2.10;1.50;;;;;;;;;;5076727;28;20434;-71
2023/09/23 04:01:10;;;;;;;1.80;1.70;;;;;;;;;;5068118;28;20441;-71
2023/09/23 04:03:37;;;;;;;1.80;1.70;;;;;;;;;;5076914;28;20427;-71
2023/09/23 04:06:07;;;;;;;2.30;1.70;;;;;;;;;;5071514;28;20983;-71
2023/09/23 04:08:35;;;;;;;2.50;1.60;;;;;;;;;;5078745;28;20426;-71
2023/09/23 04:11:05;;;;;;;2.27;2.17;;;;;;;;;;5079182;28;20460;-71
2023/09/23 04:13:33;;;;;;;1.90;1.80;;;;;;;;;;5088457;28;20438;-71
2023/09/23 04:16:00;;;;;;;2.00;1.90;;;;;;;;;;5077398;28;20515;-71
2023/09/23 04:18:28;;;;;;;1.93;1.73;;;;;;;;;;5092946;28;20452;-71
2023/09/23 04:20:56;;;;;;;2.33;2.00;;;;;;;;;;5079196;28;20917;-70
2023/09/23 04:23:23;;;;;;;2.77;1.83;;;;;;;;;;5077686;28;20896;-71
2023/09/23 04:25:53;;;;;;;1.92;1.83;;;;;;;;;;5084008;28;20422;-71
2023/09/23 04:28:20;;;;;;;3.33;2.20;;;;;;;;;;5078745;28;20514;-71
2023/09/23 04:30:50;;;;;;;3.42;2.22;;;;;;;;;;5088087;28;20447;-71
2023/09/23 04:33:17;;;;;;;2.03;1.88;;;;;;;;;;5083599;28;20493;-71
2023/09/23 04:35:44;;;;;;;3.80;2.00;;;;;;;;;;5073075;28;20439;-71
2023/09/23 04:38:11;;;;;;;1.67;1.60;;;;;;;;;;5083902;28;20498;-71
2023/09/23 04:40:39;;;;;;;2.17;2.03;;;;;;;;;;5085754;28;20427;-71
2023/09/23 04:43:06;;;;;;;2.45;2.35;;;;;;;;;;5084282;28;20439;-71
2023/09/23 04:45:33;;;;;;;2.13;1.88;;;;;;;;;;5081312;28;20533;-71
2023/09/23 04:48:01;;;;;;;3.90;2.17;;;;;;;;;;5079801;28;20998;-71
2023/09/23 04:50:28;;;;;;;5.00;2.57;;;;;;;;;;5087721;28;20430;-71
2023/09/23 04:52:55;;;;;;;2.45;2.25;;;;;;;;;;5073191;28;20438;-71
2023/09/23 04:55:23;;;;;;;1.90;1.80;;;;;;;;;;5079549;28;20468;-71
2023/09/23 04:57:50;;;;;;;3.67;2.00;;;;;;;;;;5068704;28;20480;-71
2023/09/23 05:00:18;;;;;;;2.67;2.05;;;;;;;;;;5071016;28;20837;-71
2023/09/23 05:02:48;;;;;;;2.55;2.35;;;;;;;;;;5077489;28;20458;-71
2023/09/23 05:05:15;;;;;;;2.70;2.10;;;;;;;;;;5074334;28;20902;-71
2023/09/23 05:07:42;;;;;;;4.75;2.30;;;;;;;;;;5080788;28;20430;-71
2023/09/23 05:10:11;;;;;;;4.63;2.03;;;;;;;;;;5067964;28;20451;-71
2023/09/23 05:12:39;;;;;;;3.67;1.90;;;;;;;;;;5078716;28;20431;-71
2023/09/23 05:15:09;;;;;;;2.00;1.77;;;;;;;;;;5088918;28;20515;-70
2023/09/23 05:17:37;;;;;;;3.50;1.77;;;;;;;;;;5076802;28;20534;-70
2023/09/23 05:20:24;;;;;;;3.28;2.22;;;;;;;;;;5076978;28;20516;-71
2023/09/23 05:22:52;;;;;;;2.88;2.03;;;;;;;;;;5076723;28;20427;-71
2023/09/23 05:25:24;;;;;;;1.95;1.85;;;;;;;;;;5089456;28;20439;-70
2023/09/23 05:27:54;;;;;;;3.00;2.25;;;;;;;;;;5082238;28;20429;-71
2023/09/23 05:30:22;;;;;;;2.72;1.90;;;;;;;;;;5062112;28;20423;-71
2023/09/23 05:32:50;;;;;;;2.70;2.00;;;;;;;;;;5053292;28;20517;-70
2023/09/23 05:35:18;;;;;;;3.47;2.20;;;;;;;;;;5077688;28;20433;-70
2023/09/23 05:37:47;;;;;;;3.40;2.00;;;;;;;;;;5082185;28;20426;-70
2023/09/23 05:42:53;;;;;;;2.20;1.73;;;;;;;;;;5081291;28;20522;-71
2023/09/23 05:45:24;;;;;;;2.35;2.25;;;;;;;;;;5076153;28;20461;-70
2023/09/23 05:47:52;;;;;;;2.42;2.20;;;;;;;;;;5084404;28;20430;-70
2023/09/23 05:50:20;;;;;;;3.78;2.25;;;;;;;;;;5070327;28;20448;-70
2023/09/23 05:52:48;;;;;;;3.92;2.40;;;;;;;;;;5080801;28;20497;-70
2023/09/23 05:55:16;;;;;;;4.50;2.60;;;;;;;;;;5084037;28;20434;-70
2023/09/23 05:57:45;;;;;;;4.43;2.37;;;;;;;;;;5076698;28;20549;-70
2023/09/23 06:00:15;;;;;;;2.85;2.58;;;;;;;;;;5083499;28;20517;-70
2023/09/23 06:02:47;;;;;;;2.50;2.28;;;;;;;;;;5092079;28;20428;-70
2023/09/23 06:05:18;;;;;;;2.50;2.15;;;;;;;;;;5075316;28;20918;-71
2023/09/23 06:07:46;;;;;;;2.85;2.22;;;;;;;;;;5077536;28;20518;-70
2023/09/23 06:10:15;;;;;;;2.73;2.20;;;;;;;;;;5073376;28;20436;-71
2023/09/23 06:12:42;;;;;;;2.63;2.42;;;;;;;;;;5080555;28;20445;-70
2023/09/23 06:15:10;;;;;;;2.30;2.10;;;;;;;;;;5083919;28;20430;-70
2023/09/23 06:17:38;;;;;;;3.40;1.75;;;;;;;;;;5083943;28;20834;-70
2023/09/23 06:20:05;;;;;;;1.65;1.55;;;;;;;;;;5082882;28;20448;-69
2023/09/23 06:22:34;;;;;;;2.67;1.45;;;;;;;;;;5069020;28;20482;-70
2023/09/23 06:25:03;;;;;;;1.60;1.40;;;;;;;;;;5068145;28;20431;-68
2023/09/23 06:27:33;;;;;;;1.30;1.20;;;;;;;;;;5072933;28;20447;-69
2023/09/23 06:30:00;;;;;;;1.40;1.30;;;;;;;;;;5080610;28;20507;-69
2023/09/23 06:32:28;;;;;;;1.23;1.23;;;;;;;;;;5076548;28;20451;-68
2023/09/23 06:34:57;;;;;;;2.15;1.30;;;;;;;;;;5082083;28;20430;-69
2023/09/23 06:37:24;;;;;;;2.50;1.50;;;;;;;;;;5079412;28;20508;-69
2023/09/23 06:39:51;;;;;;;1.50;1.40;;;;;;;;;;5077353;28;20545;-69
2023/09/23 06:42:18;;;;;;;1.88;1.50;;;;;;;;;;5077612;28;20452;-69
2023/09/23 06:44:52;;;;;;;3.13;1.63;;;;;;;;;;5074763;28;20496;-69
2023/09/23 06:47:20;;;;;;;1.67;1.20;;;;;;;;;;5070687;28;20941;-69
2023/09/23 06:49:50;;;;;;;1.33;1.33;;;;;;;;;;5078014;28;20489;-69
2023/09/23 06:52:18;;;;;;;1.70;1.20;;;;;;;;;;5066614;28;20467;-68
2023/09/23 06:54:48;;;;;;;1.63;1.38;;;;;;;;;;5077543;28;20913;-69
2023/09/23 06:57:15;;;;;;;1.30;1.08;;;;;;;;;;5079017;28;20432;-68
2023/09/23 06:59:42;;;;;;;1.50;1.40;;;;;;;;;;5086862;28;20432;-68
2023/09/23 07:02:09;;;;;;;2.10;1.38;;;;;;;;;;5090027;28;20496;-68
2023/09/23 07:04:37;;;;;;;1.08;1.02;;;;;;;;;;5078036;28;20426;-69
2023/09/23 07:07:04;;;;;;;0.90;0.90;;;;;;;;;;5081016;28;20446;-68
2023/09/23 07:09:31;;;;;;;3.63;1.00;;;;;;;;;;5071683;28;20426;-68
2023/09/23 07:11:58;;;;;;;1.73;1.05;;;;;;;;;;5082681;28;20437;-68
2023/09/23 07:14:30;;;;;;;1.23;1.00;;;;;;;;;;5079732;28;20856;-68
2023/09/23 07:16:59;;;;;;;2.53;1.10;;;;;;;;;;5090404;28;20514;-68
2023/09/23 07:19:26;;;;;;;1.10;1.00;;;;;;;;;;5076262;28;20430;-67
2023/09/23 07:21:54;;;;;;;1.40;1.30;;;;;;;;;;5068813;28;20531;-67
2023/09/23 07:24:21;;;;;;;1.48;0.95;;;;;;;;;;5091410;28;20964;-68
2023/09/23 07:26:48;;;;;;;1.45;1.00;;;;;;;;;;5082999;28;20437;-70
2023/09/23 07:29:15;;;;;;;0.77;0.77;;;;;;;;;;5081266;28;20426;-67
2023/09/23 07:31:42;;;;;;;1.75;1.30;;;;;;;;;;5078350;28;20538;-69
2023/09/23 07:34:09;;;;;;;2.15;1.00;;;;;;;;;;5088813;28;20454;-71
2023/09/23 07:36:36;;;;;;;2.63;1.00;;;;;;;;;;5089080;28;21127;-68
2023/09/23 07:39:04;;;;;;;1.95;0.98;;;;;;;;;;5079317;28;20456;-67
2023/09/23 07:41:31;;;;;;;2.08;1.27;;;;;;;;;;5080998;28;20430;-66
2023/09/23 07:43:59;;;;;;;1.77;0.93;;;;;;;;;;5075695;28;20459;-66
2023/09/23 07:46:29;;;;;;;1.85;1.08;;;;;;;;;;5075542;28;20439;-68
2023/09/23 07:48:56;;;;;;;2.67;0.90;;;;;;;;;;5084036;28;20422;-69
2023/09/23 07:51:23;;;;;;;2.13;0.90;;;;;;;;;;5084429;28;20455;-66
2023/09/23 07:53:54;;;;;;;1.25;0.82;;;;;;;;;;5081050;28;20424;-66
2023/09/23 07:56:21;;;;;;;2.88;0.95;;;;;;;;;;5079083;28;21041;-66
2023/09/23 07:58:48;;;;;;;0.90;0.90;;;;;;;;;;5086070;28;20812;-67
2023/09/23 08:01:16;;;;;;;1.00;0.82;;;;;;;;;;5085911;28;20472;-66
2023/09/23 08:03:45;;;;;;;1.58;0.90;;;;;;;;;;5084712;28;20910;-66
2023/09/23 08:06:13;;;;;;;0.82;0.82;;;;;;;;;;5090536;28;20435;-67
2023/09/23 08:08:46;;;;;;;1.70;1.05;;;;;;;;;;5079298;28;21182;-68
2023/09/23 08:11:13;;;;;;;3.47;0.88;;;;;;;;;;5086097;28;20515;-66
2023/09/23 08:13:41;;;;;;;1.88;0.98;;;;;;;;;;5076130;28;20941;-66
2023/09/23 08:16:08;;;;;;;2.53;1.10;;;;;;;;;;5072052;28;20427;-65
2023/09/23 08:18:35;;;;;;;1.05;0.88;;;;;;;;;;5074518;28;20431;-67
2023/09/23 08:21:02;;;;;;;1.57;1.00;;;;;;;;;;5082579;28;20435;-68
2023/09/23 08:23:29;;;;;;;1.52;0.98;;;;;;;;;;5084890;28;20951;-65
2023/09/23 08:25:56;;;;;;;2.05;1.13;;;;;;;;;;5081692;28;20442;-67
2023/09/23 08:28:24;;;;;;;2.63;0.95;;;;;;;;;;5086047;28;20425;-68
2023/09/23 08:30:53;;;;;;;1.30;0.80;;;;;;;;;;5079675;28;20428;-67
2023/09/23 08:33:21;;;;;;;1.20;0.90;;;;;;;;;;5079119;28;20434;-66
2023/09/23 08:35:48;;;;;;;1.65;0.88;;;;;;;;;;5084978;28;20743;-67
2023/09/23 08:38:16;;;;;;;1.90;0.90;;;;;;;;;;5070137;28;20493;-66
2023/09/23 08:40:46;;;;;;;1.50;1.00;;;;;;;;;;5068720;28;20898;-65
2023/09/23 08:43:15;;;;;;;2.33;1.25;;;;;;;;;;5074687;28;20426;-65
2023/09/23 08:45:43;;;;;;;2.53;1.30;;;;;;;;;;5080216;28;20435;-65
2023/09/23 08:48:11;;;;;;;2.15;1.00;;;;;;;;;;5081373;28;20430;-67
2023/09/23 08:50:43;;;;;;;1.23;1.13;;;;;;;;;;5073635;28;20428;-65
2023/09/23 08:53:15;;;;;;;1.55;1.00;;;;;;;;;;5074993;28;20427;-66
2023/09/23 08:55:42;;;;;;;1.00;0.80;;;;;;;;;;5085424;28;20418;-67
2023/09/23 08:58:13;;;;;;;2.67;0.95;;;;;;;;;;5080611;28;20485;-66
2023/09/23 09:00:46;;;;;;;1.20;1.10;;;;;;;;;;5079699;28;20812;-65
2023/09/23 09:03:13;;;;;;;2.50;1.58;;;;;;;;;;5077857;28;20431;-65
2023/09/23 09:05:46;;;;;;;1.13;0.87;;;;;;;;;;5083079;28;20439;-66
2023/09/23 09:08:14;;;;;;;0.82;0.80;;;;;;;;;;5083979;28;20433;-66
2023/09/23 09:10:41;;;;;;;0.82;0.82;;;;;;;;;;5082049;28;20477;-65
2023/09/23 09:13:11;;;;;;;1.83;1.00;;;;;;;;;;5075591;28;20435;-66
2023/09/23 09:15:38;;;;;;;0.93;0.90;;;;;;;;;;5079243;28;20459;-64
2023/09/23 09:18:08;;;;;;;1.90;0.95;;;;;;;;;;5080221;28;20434;-65
2023/09/23 09:20:37;;;;;;;2.33;0.90;;;;;;;;;;5084124;28;20426;-65
2023/09/23 09:23:04;;;;;;;1.00;0.85;;;;;;;;;;5078563;28;20947;-66
2023/09/23 09:25:31;;;;;;;1.52;0.93;;;;;;;;;;5078186;28;20851;-65
2023/09/23 09:28:02;;;;;;;2.65;0.90;;;;;;;;;;5074316;28;20419;-64
2023/09/23 09:30:33;;;;;;;1.10;1.00;;;;;;;;;;5080800;28;20976;-65
2023/09/23 09:33:01;;;;;;;2.58;1.00;;;;;;;;;;5079728;28;20424;-64
2023/09/23 09:35:29;;;;;;;1.40;1.00;;;;;;;;;;5075440;28;20490;-64
2023/09/23 09:37:58;;;;;;;3.30;0.90;;;;;;;;;;5081086;28;20425;-64
2023/09/23 09:40:44;;;;;;;3.20;1.42;;;;;;;;;;5091996;28;20776;-65
2023/09/23 09:43:11;;;;;;;1.23;0.90;;;;;;;;;;5075864;28;20439;-64
2023/09/23 09:45:42;;;;;;;0.90;0.90;;;;;;;;;;5076564;28;20933;-64
2023/09/23 09:48:10;;;;;;;2.83;1.02;;;;;;;;;;5081168;28;20429;-64
2023/09/23 09:50:39;;;;;;;2.47;0.90;;;;;;;;;;5081962;28;20967;-65
2023/09/23 09:53:08;;;;;;;1.38;1.10;;;;;;;;;;5081386;28;20760;-64
2023/09/23 09:55:38;;;;;;;2.40;0.98;;;;;;;;;;5085812;28;20418;-64
2023/09/23 09:58:06;;;;;;;2.60;1.05;;;;;;;;;;5081521;28;20491;-64
2023/09/23 10:00:42;;;;;;;1.15;1.00;;;;;;;;;;5081975;28;20433;-66
2023/09/23 10:03:11;;;;;;;1.30;0.80;;;;;;;;;;5075175;28;20431;-65
2023/09/23 10:05:46;;;;;;;1.40;0.93;;;;;;;;;;5083792;28;20461;-64
2023/09/23 10:08:24;;;;;;;2.33;1.10;;;;;;;;;;5082047;28;20509;-64
2023/09/23 10:11:02;;;;;;;1.13;0.90;;;;;;;;;;5066358;28;20432;-64
2023/09/23 10:13:31;;;;;;;1.57;1.00;;;;;;;;;;5075698;28;20436;-65
2023/09/23 10:16:05;;;;;;;2.20;1.10;;;;;;;;;;5080237;28;20452;-64
2023/09/23 10:18:37;;;;;;;1.50;1.25;;;;;;;;;;5085701;28;20426;-64
2023/09/23 10:21:08;;;;;;;1.23;0.80;;;;;;;;;;5073168;28;21000;-64
2023/09/23 10:23:39;;;;;;;1.38;1.05;;;;;;;;;;5070799;28;20569;-64
2023/09/23 10:26:18;;;;;;;1.83;0.95;;;;;;;;;;5069754;28;21004;-64
2023/09/23 10:29:05;;;;;;;1.58;0.90;;;;;;;;;;5072834;28;20900;-65
2023/09/23 10:31:33;;;;;;;3.35;1.15;;;;;;;;;;5076860;28;20423;-66
2023/09/23 10:34:04;;;;;;;1.80;0.80;;;;;;;;;;5083078;28;20426;-65
2023/09/23 10:36:31;;;;;;;1.80;0.97;;;;;;;;;;5080743;28;20479;-64
2023/09/23 10:38:59;;;;;;;1.65;0.80;;;;;;;;;;5086601;28;20449;-65
2023/09/23 10:41:34;;;;;;;0.70;0.70;;;;;;;;;;5086434;28;20417;-64
2023/09/23 10:44:02;;;;;;;2.70;0.90;;;;;;;;;;5079133;28;20423;-64
2023/09/23 10:46:30;;;;;;;2.50;0.90;;;;;;;;;;5083760;28;22950;-66
2023/09/23 10:49:00;;;;;;;1.10;0.60;;;;;;;;;;5074584;28;20507;-64
2023/09/23 10:51:27;;;;;;;2.75;0.90;;;;;;;;;;5083877;28;20511;-66
2023/09/23 10:53:58;;;;;;;1.00;0.70;;;;;;;;;;5082704;28;20453;-65
2023/09/23 10:56:26;;;;;;;1.20;0.73;;;;;;;;;;5087604;28;20424;-65
2023/09/23 10:58:54;;;;;;;1.75;0.75;;;;;;;;;;5093945;28;20422;-64
2023/09/23 11:01:24;;;;;;;2.13;0.80;;;;;;;;;;5084152;28;20434;-67
2023/09/23 11:03:52;;;;;;;2.38;0.95;;;;;;;;;;5083051;28;20433;-64
2023/09/23 11:06:19;;;;;;;1.45;0.60;;;;;;;;;;5085950;28;20891;-65
2023/09/23 11:08:46;;;;;;;0.93;0.60;;;;;;;;;;5080827;28;20418;-66
2023/09/23 11:11:14;;;;;;;1.30;0.60;;;;;;;;;;5074793;28;20423;-65
2023/09/23 11:13:41;;;;;;;4.35;0.90;;;;;;;;;;5083313;28;20448;-66
2023/09/23 11:16:09;;;;;;;2.30;0.73;;;;;;;;;;5079214;28;20431;-64
2023/09/23 11:18:37;;;;;;;1.40;0.73;;;;;;;;;;5080796;28;20430;-64
2023/09/23 11:21:04;;;;;;;0.90;0.60;;;;;;;;;;5085275;28;20911;-65
2023/09/23 11:23:32;;;;;;;0.95;0.68;;;;;;;;;;5081165;28;20421;-64
2023/09/23 11:26:00;;;;;;;1.30;0.90;;;;;;;;;;5083713;28;20445;-64
2023/09/23 11:28:27;;;;;;;1.50;0.73;;;;;;;;;;5086792;28;20854;-66
2023/09/23 11:30:58;;;;;;;0.50;0.50;;;;;;;;;;5078214;28;20824;-65
2023/09/23 11:33:26;;;;;;;1.20;0.68;;;;;;;;;;5079528;28;20481;-65
2023/09/23 11:35:54;;;;;;;1.25;0.63;;;;;;;;;;5081616;28;20428;-64
2023/09/23 11:38:22;;;;;;;65.35;60.00;;;;;;;;;;5091601;28;20504;-64
2023/09/23 11:40:54;;;;;;;0.57;0.50;;;;;;;;;;5075757;28;20882;-63
2023/09/23 11:43:22;;;;;;;0.98;0.55;;;;;;;;;;5076257;28;20438;-63
2023/09/23 11:45:51;;;;;;;1.50;0.60;;;;;;;;;;5080629;28;20425;-64
2023/09/23 11:48:20;;;;;;;2.60;0.60;;;;;;;;;;5077371;28;20508;-64
2023/09/23 11:50:48;;;;;;;1.80;0.70;;;;;;;;;;5082139;28;20515;-64
2023/09/23 11:53:15;;;;;;;1.50;0.50;;;;;;;;;;5075145;28;21073;-65
2023/09/23 11:55:42;;;;;;;0.40;0.40;;;;;;;;;;5086155;28;20803;-64
2023/09/23 11:58:09;;;;;;;2.50;0.80;;;;;;;;;;5080898;28;20522;-64
2023/09/23 12:00:40;;;;;;;1.55;0.50;;;;;;;;;;5074360;28;20434;-63
2023/09/23 12:03:08;;;;;;;0.70;0.70;;;;;;;;;;5079806;28;20465;-64
2023/09/23 12:05:35;;;;;;;1.08;0.50;;;;;;;;;;5081094;28;20433;-65
2023/09/23 12:08:03;;;;;;;0.60;0.60;;;;;;;;;;5074265;28;20428;-63
2023/09/23 12:10:30;;;;;;;1.52;0.63;;;;;;;;;;5073070;28;20528;-63
2023/09/23 12:13:02;;;;;;;0.52;0.52;;;;;;;;;;5082758;28;20427;-63
2023/09/23 12:15:31;;;;;;;0.90;0.60;;;;;;;;;;5075000;28;20489;-63
2023/09/23 12:17:58;;;;;;;1.45;0.60;;;;;;;;;;5082368;28;20918;-63
2023/09/23 12:20:26;;;;;;;0.98;0.68;;;;;;;;;;5085348;28;20437;-63
2023/09/23 12:22:58;;;;;;;1.80;0.68;;;;;;;;;;5084814;28;20433;-64
2023/09/23 12:25:33;;;;;;;1.83;0.60;;;;;;;;;;5083829;28;20557;-65
2023/09/23 12:28:00;;;;;;;2.40;0.70;;;;;;;;;;5084659;28;20425;-63
2023/09/23 12:30:28;;;;;;;1.25;0.60;;;;;;;;;;5080712;28;20422;-63
2023/09/23 12:32:55;;;;;;;1.10;0.73;;;;;;;;;;5075707;28;20518;-63
2023/09/23 12:35:22;;;;;;;1.80;0.80;;;;;;;;;;5066414;28;20425;-62
2023/09/23 12:37:49;;;;;;;0.60;0.57;;;;;;;;;;5076625;28;20856;-63
2023/09/23 12:40:16;;;;;;;0.95;0.75;;;;;;;;;;5075258;28;20427;-63
2023/09/23 12:42:43;;;;;;;1.10;0.50;;;;;;;;;;5068174;28;20630;-62
2023/09/23 12:45:12;;;;;;;0.82;0.60;;;;;;;;;;5082669;28;20432;-62
2023/09/23 12:47:46;;;;;;;1.03;0.80;;;;;;;;;;5081860;28;20744;-62
2023/09/23 12:50:27;;;;;;;1.70;0.50;;;;;;;;;;5076354;28;20474;-62
2023/09/23 12:52:54;;;;;;;0.50;0.50;;;;;;;;;;5084611;28;20468;-62
2023/09/23 12:55:22;;;;;;;0.50;0.50;;;;;;;;;;5081566;28;20440;-62
2023/09/23 12:57:52;;;;;;;1.30;0.70;;;;;;;;;;5082501;28;20524;-62
2023/09/23 13:00:20;;;;;;;1.02;0.65;;;;;;;;;;5084358;28;20429;-62
2023/09/23 13:02:49;;;;;;;0.90;0.60;;;;;;;;;;5081784;28;20963;-62
2023/09/23 13:05:17;;;;;;;0.88;0.77;;;;;;;;;;5078802;28;20887;-62
2023/09/23 13:07:44;;;;;;;1.20;0.70;;;;;;;;;;5082752;28;20433;-62
2023/09/23 13:10:12;;;;;;;1.65;0.73;;;;;;;;;;5076660;28;20433;-63
2023/09/23 13:12:41;;;;;;;1.70;0.98;;;;;;;;;;5072644;28;20429;-62
2023/09/23 13:15:08;;;;;;;3.17;0.70;;;;;;;;;;5074302;28;20426;-62
2023/09/23 13:17:36;;;;;;;1.30;0.82;;;;;;;;;;5083667;28;20461;-62
2023/09/23 13:20:03;;;;;;;0.80;0.80;;;;;;;;;;5080799;28;20500;-62
2023/09/23 13:22:31;;;;;;;0.60;0.50;;;;;;;;;;5079721;28;21176;-63
2023/09/23 13:24:58;;;;;;;1.63;0.65;;;;;;;;;;5078960;28;20431;-63
2023/09/23 13:27:25;;;;;;;2.47;0.70;;;;;;;;;;5079243;28;20493;-64
2023/09/23 13:29:53;;;;;;;1.00;0.70;;;;;;;;;;5073184;28;20484;-62
2023/09/23 13:32:20;;;;;;;1.30;0.70;;;;;;;;;;5076907;28;20449;-62
2023/09/23 13:34:53;;;;;;;1.35;0.77;;;;;;;;;;5081255;28;20424;-62
2023/09/23 13:37:20;;;;;;;1.25;0.80;;;;;;;;;;5079513;28;20474;-62
2023/09/23 13:39:50;;;;;;;1.52;0.90;;;;;;;;;;5080731;28;20429;-62
2023/09/23 13:42:17;;;;;;;1.42;0.80;;;;;;;;;;5068041;28;20427;-62
2023/09/23 13:44:49;;;;;;;1.10;0.70;;;;;;;;;;5079472;28;20485;-62
2023/09/23 13:47:17;;;;;;;1.80;0.80;;;;;;;;;;5075899;28;20825;-65
2023/09/23 13:49:44;;;;;;;1.27;0.60;;;;;;;;;;5076124;28;20425;-62
2023/09/23 13:52:12;;;;;;;1.55;0.90;;;;;;;;;;5071455;28;20591;-62
2023/09/23 13:54:39;;;;;;;1.65;0.80;;;;;;;;;;5083013;28;20432;-62
2023/09/23 13:57:06;;;;;;;1.50;0.93;;;;;;;;;;5082968;28;20480;-62
2023/09/23 13:59:33;;;;;;;3.53;0.80;;;;;;;;;;5080320;28;20431;-63
2023/09/23 14:02:00;;;;;;;2.35;0.90;;;;;;;;;;5081672;28;20509;-63
2023/09/23 14:04:28;;;;;;;1.60;0.88;;;;;;;;;;5090369;28;20792;-64
2023/09/23 14:06:55;;;;;;;1.48;0.98;;;;;;;;;;5084565;28;20464;-63
2023/09/23 14:09:22;;;;;;;2.10;0.90;;;;;;;;;;5084384;28;20524;-62
2023/09/23 14:11:59;;;;;;;1.85;1.08;;;;;;;;;;5078792;28;21085;-63
2023/09/23 14:14:27;;;;;;;1.00;0.80;;;;;;;;;;5083917;28;20425;-63
2023/09/23 14:16:55;;;;;;;1.50;1.00;;;;;;;;;;5080924;28;20501;-62
2023/09/23 14:19:22;;;;;;;2.47;0.80;;;;;;;;;;5075012;28;20426;-62
2023/09/23 14:21:52;;;;;;;2.55;0.90;;;;;;;;;;5075320;28;20511;-62
2023/09/23 14:24:19;;;;;;;1.30;1.00;;;;;;;;;;5078012;28;20429;-63
2023/09/23 14:26:46;;;;;;;2.83;0.80;;;;;;;;;;5082331;28;20780;-62
2023/09/23 14:29:13;;;;;;;1.23;0.70;;;;;;;;;;5083327;28;20918;-62
2023/09/23 14:31:44;;;;;;;0.80;0.80;;;;;;;;;;5082748;28;20437;-62
2023/09/23 14:34:13;;;;;;;2.47;0.80;;;;;;;;;;5085643;28;20435;-62
2023/09/23 14:36:43;;;;;;;4.17;1.10;;;;;;;;;;5081810;28;20803;-62
2023/09/23 14:39:14;;;;;;;2.40;0.80;;;;;;;;;;5079531;28;20516;-62
2023/09/23 14:41:43;;;;;;;2.30;0.95;;;;;;;;;;5083469;28;20532;-62
2023/09/23 14:44:10;;;;;;;1.48;0.90;;;;;;;;;;5074232;28;20442;-63
2023/09/23 14:46:38;;;;;;;1.90;0.80;;;;;;;;;;5076127;28;20427;-62
2023/09/23 14:49:06;;;;;;;1.00;0.85;;;;;;;;;;5100137;28;20783;-63
2023/09/23 14:51:33;;;;;;;1.25;0.90;;;;;;;;;;5089250;28;20498;-62